Time;durP1;ratioP1;P1;durP2;ratioP2;P2;SDS_P1;SDS_P2;PMS_P1;PMS_P2;Temp;Humidity;BMP_temperature;BMP_pressure;BME280_temperature;BME280_humidity;BME280_pressure;Samples;Min_cycle;Max_cycle;Signal;HPM_P1;HPM_P2
2023/06/03 00:00:13;;;;;;;3.38;2.15;;;;;;;17.72;69.46;99310.00;5096607;28;20486;-86
2023/06/03 00:02:40;;;;;;;2.85;2.40;;;;;;;17.49;69.85;99269.34;5089468;28;20032;-86
2023/06/03 00:05:06;;;;;;;3.35;2.03;;;;;;;17.59;69.91;99277.72;5091542;28;20032;-86
2023/06/03 00:07:31;;;;;;;1.88;1.63;;;;;;;17.67;70.29;99290.69;5090254;28;20560;-86
2023/06/03 00:09:56;;;;;;;2.35;1.92;;;;;;;17.69;69.18;99281.66;5096905;28;20105;-84
2023/06/03 00:12:22;;;;;;;2.50;1.92;;;;;;;17.81;69.27;99309.53;5101549;28;20514;-85
2023/06/03 00:14:49;;;;;;;4.78;2.53;;;;;;;17.76;69.05;99294.69;5105655;28;20031;-86
2023/06/03 00:17:15;;;;;;;3.38;2.30;;;;;;;17.67;68.79;99301.34;5103374;27;20119;-86
2023/06/03 00:19:41;;;;;;;6.18;2.28;;;;;;;17.75;68.57;99301.84;5071081;28;20482;-85
2023/06/03 00:22:07;;;;;;;4.47;2.13;;;;;;;17.78;69.18;99295.47;5081308;28;20028;-85
2023/06/03 00:24:32;;;;;;;2.92;2.08;;;;;;;17.65;68.83;99319.25;5090610;28;20097;-84
2023/06/03 00:26:59;;;;;;;3.33;2.22;;;;;;;17.65;69.09;99338.75;5090359;28;20119;-85
2023/06/03 00:29:25;;;;;;;3.33;1.88;;;;;;;17.52;68.52;99301.19;5097572;28;20050;-84
2023/06/03 00:31:51;;;;;;;4.10;1.67;;;;;;;17.82;68.73;99350.41;5102931;28;20055;-84
2023/06/03 00:34:17;;;;;;;2.45;1.75;;;;;;;17.84;68.83;99337.84;5098118;28;20816;-85
2023/06/03 00:36:42;;;;;;;3.45;2.15;;;;;;;17.85;68.72;99327.09;5096854;28;20108;-84
2023/06/03 00:39:09;;;;;;;3.28;1.75;;;;;;;17.80;69.46;99312.28;5102194;28;20035;-85
2023/06/03 00:41:34;;;;;;;4.75;2.95;;;;;;;17.94;69.30;99349.81;5097582;28;20107;-85
2023/06/03 00:44:00;;;;;;;4.38;1.42;;;;;;;17.77;69.23;99325.78;5098931;28;20036;-85
2023/06/03 00:46:26;;;;;;;3.75;2.60;;;;;;;17.76;69.06;99308.03;5100476;28;20038;-85
2023/06/03 00:48:52;;;;;;;4.32;2.13;;;;;;;17.62;69.21;99287.38;5111464;28;20034;-85
2023/06/03 00:51:19;;;;;;;1.73;1.48;;;;;;;17.81;69.38;99305.97;5110868;28;20021;-84
2023/06/03 00:53:45;;;;;;;3.85;2.75;;;;;;;17.96;69.24;99317.72;5111089;28;20028;-84
2023/06/03 00:56:12;;;;;;;4.28;2.08;;;;;;;17.96;68.87;99289.22;5095200;28;20131;-84
2023/06/03 00:58:37;;;;;;;4.13;2.42;;;;;;;18.30;69.03;99323.97;5090229;28;20038;-83
2023/06/03 01:01:03;;;;;;;3.72;2.92;;;;;;;18.12;69.22;99325.78;5090125;28;20031;-84
2023/06/03 01:03:29;;;;;;;1.70;1.58;;;;;;;17.97;69.38;99301.63;5089640;28;21031;-84
2023/06/03 01:06:06;;;;;;;4.15;2.42;;;;;;;18.07;69.64;99329.56;5090040;28;20043;-84
2023/06/03 01:08:57;;;;;;;6.07;3.38;;;;;;;18.02;69.67;99331.59;5090572;28;20154;-84
2023/06/03 01:11:51;;;;;;;4.28;1.98;;;;;;;17.71;69.23;99274.44;5051076;28;20473;-84
2023/06/03 01:14:20;;;;;;;2.75;2.33;;;;;;;17.87;68.97;99301.22;5067426;28;20040;-84
2023/06/03 01:16:49;;;;;;;3.08;2.10;;;;;;;17.79;69.68;99292.72;5067656;28;20044;-85
2023/06/03 01:19:38;;;;;;;4.22;3.28;;;;;;;17.95;70.19;99332.00;5067222;28;20064;-84
2023/06/03 01:22:11;;;;;;;3.00;2.28;;;;;;;17.57;69.60;99260.09;5068043;28;20045;-84
2023/06/03 01:24:37;;;;;;;5.35;2.28;;;;;;;17.81;70.20;99314.00;5067373;28;20029;-84
2023/06/03 01:27:03;;;;;;;4.40;3.50;;;;;;;17.70;70.23;99294.06;5066342;28;20033;-84
2023/06/03 01:29:29;;;;;;;2.30;1.90;;;;;;;17.73;69.37;99303.69;5067053;28;20040;-84
2023/06/03 01:31:58;;;;;;;3.80;2.13;;;;;;;17.68;70.07;99301.28;5067319;28;20499;-84
2023/06/03 01:34:25;;;;;;;6.40;4.05;;;;;;;17.91;69.90;99315.28;5067118;28;20037;-84
2023/06/03 01:36:51;;;;;;;4.05;2.63;;;;;;;17.84;69.90;99311.16;5049982;28;20036;-84
2023/06/03 01:39:18;;;;;;;2.00;1.63;;;;;;;17.79;70.67;99318.53;5067192;28;20032;-85
2023/06/03 01:41:44;;;;;;;2.95;2.00;;;;;;;17.73;70.62;99317.03;5067469;28;20044;-85
2023/06/03 01:44:10;;;;;;;9.95;4.63;;;;;;;17.67;70.26;99312.00;5066924;28;20066;-86
2023/06/03 01:46:35;;;;;;;3.55;1.83;;;;;;;17.62;70.64;99295.41;5066967;28;20041;-84
2023/06/03 01:49:02;;;;;;;2.80;1.75;;;;;;;17.51;70.20;99275.44;5085091;28;20040;-84
2023/06/03 01:51:28;;;;;;;4.75;2.58;;;;;;;17.66;70.18;99289.81;5089775;28;20070;-84
2023/06/03 01:53:53;;;;;;;2.70;1.88;;;;;;;17.51;70.30;99262.13;5090241;28;20051;-84
2023/06/03 01:56:19;;;;;;;4.68;2.28;;;;;;;17.75;70.69;99311.63;5089663;28;20028;-85
2023/06/03 01:58:45;;;;;;;8.23;3.70;;;;;;;17.80;70.86;99317.63;5089084;28;20043;-84
2023/06/03 02:01:11;;;;;;;5.15;2.83;;;;;;;17.63;70.24;99276.66;5089380;28;20478;-85
2023/06/03 02:03:36;;;;;;;4.18;2.03;;;;;;;17.56;70.17;99272.56;5089409;28;20028;-85
2023/06/03 02:06:01;;;;;;;3.10;2.47;;;;;;;17.46;69.62;99272.16;5089895;28;20028;-85
2023/06/03 02:08:27;;;;;;;4.65;1.50;;;;;;;17.31;69.78;99272.94;5089553;28;20028;-85
2023/06/03 02:10:52;;;;;;;4.03;2.47;;;;;;;17.40;70.52;99280.47;5087709;28;20036;-84
2023/06/03 02:13:18;;;;;;;4.57;2.30;;;;;;;17.18;71.79;99283.34;5087681;28;20024;-83
2023/06/03 02:15:43;;;;;;;3.15;2.65;;;;;;;17.38;71.79;99332.13;5089602;28;20059;-84
2023/06/03 02:18:10;;;;;;;3.63;2.42;;;;;;;17.32;71.20;99298.66;5089261;28;20081;-84
2023/06/03 02:20:35;;;;;;;4.60;3.40;;;;;;;16.89;71.80;99245.63;5089131;28;20032;-85
2023/06/03 02:23:04;;;;;;;3.70;1.73;;;;;;;17.40;71.38;99330.28;5089372;28;20028;-84
2023/06/03 02:25:29;;;;;;;3.75;2.47;;;;;;;17.27;72.21;99319.31;5089307;28;20455;-84
2023/06/03 02:27:56;;;;;;;3.47;2.08;;;;;;;17.26;72.02;99306.94;5088574;28;20024;-84
2023/06/03 02:30:22;;;;;;;2.17;1.65;;;;;;;16.93;72.40;99268.53;5089134;28;20085;-84
2023/06/03 02:32:47;;;;;;;1.98;1.67;;;;;;;17.00;72.20;99319.72;5087460;28;20036;-84
2023/06/03 02:35:14;;;;;;;3.47;2.60;;;;;;;17.01;72.51;99318.78;5089098;28;20101;-83
2023/06/03 02:37:39;;;;;;;2.80;2.05;;;;;;;16.81;71.95;99287.72;5090708;28;20070;-83
2023/06/03 02:40:06;;;;;;;3.45;2.88;;;;;;;16.96;72.54;99343.00;5092564;28;20497;-84
2023/06/03 02:42:31;;;;;;;2.03;1.83;;;;;;;16.86;72.80;99319.47;5092955;28;20443;-84
2023/06/03 02:44:57;;;;;;;4.47;2.88;;;;;;;17.06;72.88;99335.41;5093030;28;20035;-85
2023/06/03 02:47:22;;;;;;;3.85;1.65;;;;;;;16.93;72.24;99287.19;5092908;28;20028;-85
2023/06/03 02:49:49;;;;;;;3.92;2.35;;;;;;;17.12;71.73;99302.28;5092507;28;20039;-85
2023/06/03 02:52:14;;;;;;;5.25;2.78;;;;;;;17.40;71.31;99341.78;5091740;28;20043;-84
2023/06/03 02:54:40;;;;;;;3.65;2.78;;;;;;;17.40;71.16;99322.28;5092289;28;20036;-84
2023/06/03 02:57:07;;;;;;;5.32;2.85;;;;;;;17.20;71.72;99310.75;5091024;28;20036;-84
2023/06/03 02:59:32;;;;;;;3.53;2.65;;;;;;;17.33;71.33;99308.34;5091875;28;20028;-84
2023/06/03 03:01:58;;;;;;;4.13;2.97;;;;;;;17.16;72.14;99320.72;5092225;28;20181;-83
2023/06/03 03:04:26;;;;;;;1.92;1.48;;;;;;;17.38;72.58;99334.78;5092778;28;20537;-83
2023/06/03 03:06:54;;;;;;;3.55;1.70;;;;;;;17.40;72.84;99346.25;5090487;28;20032;-84
2023/06/03 03:09:19;;;;;;;6.28;4.15;;;;;;;17.31;72.17;99316.44;5090851;28;20032;-84
2023/06/03 03:11:45;;;;;;;3.90;2.53;;;;;;;17.35;71.87;99311.84;5092269;28;20028;-84
2023/06/03 03:14:11;;;;;;;8.40;2.17;;;;;;;17.68;71.82;99359.94;5092346;28;20032;-83
2023/06/03 03:16:37;;;;;;;4.55;3.33;;;;;;;17.53;71.28;99316.25;5091550;28;20433;-84
2023/06/03 03:19:02;;;;;;;10.20;3.42;;;;;;;17.47;71.17;99332.56;5091842;28;20063;-84
2023/06/03 03:21:28;;;;;;;4.95;2.50;;;;;;;17.47;71.08;99324.56;5090325;28;20043;-84
2023/06/03 03:23:53;;;;;;;4.38;3.05;;;;;;;17.35;70.93;99306.50;5090519;28;20123;-84
2023/06/03 03:26:21;;;;;;;9.48;3.38;;;;;;;17.60;70.77;99348.81;5091813;28;20032;-86
2023/06/03 03:28:48;;;;;;;5.38;3.53;;;;;;;17.59;71.07;99348.88;5091628;28;20066;-84
2023/06/03 03:31:14;;;;;;;4.95;2.85;;;;;;;17.87;70.98;99369.69;5092454;28;20036;-84
2023/06/03 03:33:40;;;;;;;10.20;3.72;;;;;;;17.71;70.91;99349.13;5091712;28;20437;-84
2023/06/03 03:36:20;;;;;;;4.28;2.53;;;;;;;17.85;70.41;99363.59;5092422;28;20036;-84
2023/06/03 03:38:45;;;;;;;7.15;3.78;;;;;;;18.02;70.22;99376.97;5091619;28;20052;-83
2023/06/03 03:41:11;;;;;;;5.70;3.35;;;;;;;17.84;69.12;99337.84;5091650;28;20867;-83
2023/06/03 03:43:37;;;;;;;3.83;2.55;;;;;;;17.61;68.90;99307.00;5091289;28;20496;-84
2023/06/03 03:46:02;;;;;;;4.10;2.72;;;;;;;18.16;68.99;99378.06;5092068;28;20035;-82
2023/06/03 03:48:30;;;;;;;2.88;2.13;;;;;;;18.19;68.95;99348.56;5091558;28;20063;-83
2023/06/03 03:50:56;;;;;;;5.15;3.60;;;;;;;18.29;68.88;99363.16;5106178;28;20060;-83
2023/06/03 03:53:26;;;;;;;4.95;3.58;;;;;;;18.10;69.00;99339.22;5091735;28;20067;-84
2023/06/03 03:55:54;;;;;;;3.85;2.97;;;;;;;18.25;69.09;99362.44;5090515;28;20039;-83
2023/06/03 03:58:26;;;;;;;4.43;2.95;;;;;;;18.26;69.36;99357.97;5107045;28;20027;-83
2023/06/03 04:01:23;;;;;;;5.07;3.22;;;;;;;18.38;68.95;99354.66;5091667;28;20038;-82
2023/06/03 04:03:52;;;;;;;3.00;2.55;;;;;;;18.67;69.11;99383.44;5091274;28;20036;-84
2023/06/03 04:06:29;;;;;;;2.45;2.15;;;;;;;18.82;69.52;99382.63;5092304;28;20060;-83
2023/06/03 04:08:54;;;;;;;7.88;2.25;;;;;;;18.76;68.59;99389.16;5091792;28;20101;-83
2023/06/03 04:11:27;;;;;;;3.10;2.42;;;;;;;18.91;68.65;99389.31;5090386;28;20066;-84
2023/06/03 04:13:54;;;;;;;7.13;3.53;;;;;;;18.85;68.39;99386.97;5091375;28;20032;-83
2023/06/03 04:16:41;;;;;;;4.28;2.47;;;;;;;19.16;68.16;99387.97;5090629;28;20040;-83
2023/06/03 04:19:13;;;;;;;7.10;3.83;;;;;;;18.92;68.65;99385.69;5090959;28;20449;-83
2023/06/03 04:21:38;;;;;;;6.43;3.95;;;;;;;19.07;68.04;99352.75;5091282;28;20036;-82
2023/06/03 04:24:05;;;;;;;5.72;3.45;;;;;;;19.18;69.97;99367.34;5091524;28;20066;-82
2023/06/03 04:26:30;;;;;;;7.90;4.60;;;;;;;19.29;69.81;99389.00;5090732;28;20024;-83
2023/06/03 04:28:56;;;;;;;10.88;4.15;;;;;;;19.27;69.21;99366.84;5090702;28;20058;-83
2023/06/03 04:31:21;;;;;;;4.35;3.00;;;;;;;19.37;69.37;99391.25;5091239;28;20032;-84
2023/06/03 04:33:47;;;;;;;4.13;3.20;;;;;;;19.32;68.97;99372.78;5090403;28;20383;-83
2023/06/03 04:36:12;;;;;;;8.32;3.95;;;;;;;19.37;69.56;99385.88;5088326;28;20048;-84
2023/06/03 04:38:38;;;;;;;6.93;3.60;;;;;;;19.32;68.18;99370.09;5090801;28;20044;-84
2023/06/03 04:41:04;;;;;;;3.22;2.15;;;;;;;19.39;67.05;99366.16;5091002;28;20024;-84
2023/06/03 04:43:29;;;;;;;4.88;2.35;;;;;;;19.48;67.48;99364.78;5088995;28;20046;-84
2023/06/03 04:45:55;;;;;;;8.25;4.13;;;;;;;19.57;67.27;99371.38;5090459;28;20513;-84
2023/06/03 04:48:25;;;;;;;5.15;3.20;;;;;;;19.59;68.13;99386.41;5088268;28;20039;-84
2023/06/03 04:50:50;;;;;;;4.82;2.55;;;;;;;19.66;68.72;99382.44;5091424;28;20047;-84
2023/06/03 04:53:16;;;;;;;3.60;2.67;;;;;;;19.93;66.08;99384.50;5090717;28;20032;-84
2023/06/03 04:55:43;;;;;;;4.88;2.60;;;;;;;19.96;65.50;99378.09;5090485;28;20032;-83
2023/06/03 04:58:10;;;;;;;4.80;2.03;;;;;;;19.64;64.49;99346.00;5090638;28;20082;-83
2023/06/03 05:00:36;;;;;;;4.47;3.25;;;;;;;20.07;64.50;99396.22;5090558;28;20031;-82
2023/06/03 05:03:08;;;;;;;5.43;2.53;;;;;;;20.11;66.00;99392.38;5090101;28;20057;-84
2023/06/03 05:05:34;;;;;;;11.68;2.45;;;;;;;20.16;65.00;99391.16;5088728;28;20123;-81
2023/06/03 05:08:00;;;;;;;4.47;3.33;;;;;;;20.42;63.11;99377.16;5088403;28;20505;-81
2023/06/03 05:10:25;;;;;;;5.10;2.30;;;;;;;20.55;61.83;99376.31;5090444;28;20126;-84
2023/06/03 05:12:51;;;;;;;3.30;2.20;;;;;;;20.27;63.35;99384.31;5090709;28;20054;-83
2023/06/03 05:15:16;;;;;;;5.65;2.03;;;;;;;20.43;63.35;99360.13;5090359;28;20039;-81
2023/06/03 05:17:42;;;;;;;3.53;2.42;;;;;;;20.51;61.53;99387.31;5090253;28;20058;-84
2023/06/03 05:20:09;;;;;;;3.55;2.30;;;;;;;20.63;62.19;99396.41;5081961;28;20037;-85
2023/06/03 05:22:35;;;;;;;4.32;2.05;;;;;;;20.63;59.32;99399.94;5101685;28;20176;-85
2023/06/03 05:25:02;;;;;;;3.67;1.98;;;;;;;20.64;61.24;99412.41;5109325;28;20122;-84
2023/06/03 05:27:28;;;;;;;4.85;3.05;;;;;;;20.38;60.71;99380.00;5108252;28;20027;-82
2023/06/03 05:29:53;;;;;;;5.30;2.40;;;;;;;20.55;60.85;99383.50;5089122;28;20410;-86
2023/06/03 05:32:19;;;;;;;4.03;2.45;;;;;;;20.87;60.81;99410.16;5095974;28;20031;-84
2023/06/03 05:34:44;;;;;;;3.55;1.50;;;;;;;21.10;61.78;99424.78;5108334;28;20140;-83
2023/06/03 05:37:10;;;;;;;2.90;1.42;;;;;;;21.19;60.61;99394.69;5105950;28;20122;-83
2023/06/03 05:39:36;;;;;;;2.70;2.10;;;;;;;21.06;59.94;99407.19;5100145;28;20055;-83
2023/06/03 05:42:02;;;;;;;2.83;1.67;;;;;;;21.35;59.58;99354.38;5109333;28;20044;-84
2023/06/03 05:44:27;;;;;;;2.40;1.88;;;;;;;21.67;59.10;99391.66;5103759;28;20425;-84
2023/06/03 05:46:53;;;;;;;3.83;2.70;;;;;;;21.58;58.70;99403.88;5094580;28;20066;-84
2023/06/03 05:49:19;;;;;;;3.47;1.58;;;;;;;21.43;59.35;99399.47;5088468;28;20035;-83
2023/06/03 05:51:45;;;;;;;2.60;1.83;;;;;;;21.56;59.48;99353.94;5088829;28;20488;-85
2023/06/03 05:54:10;;;;;;;2.83;1.95;;;;;;;21.78;59.66;99388.25;5094078;28;20032;-83
2023/06/03 05:56:35;;;;;;;2.58;2.25;;;;;;;22.36;59.36;99388.88;5088249;28;20493;-83
2023/06/03 05:59:01;;;;;;;3.35;2.28;;;;;;;22.52;57.47;99373.44;5089439;28;20417;-85
2023/06/03 06:01:26;;;;;;;3.20;2.35;;;;;;;23.11;55.28;99377.41;5098575;28;20044;-85
2023/06/03 06:03:52;;;;;;;4.32;2.65;;;;;;;23.06;53.24;99409.09;5094690;28;20459;-84
2023/06/03 06:06:18;;;;;;;5.65;2.63;;;;;;;23.18;55.68;99372.41;5092337;28;20032;-86
2023/06/03 06:08:43;;;;;;;3.45;1.85;;;;;;;23.42;56.03;99384.09;5100947;28;20092;-85
2023/06/03 06:11:09;;;;;;;4.18;3.30;;;;;;;23.69;53.28;99350.69;5095801;28;20032;-85
2023/06/03 06:13:35;;;;;;;4.07;2.60;;;;;;;23.63;53.99;99405.00;5100439;28;21625;-84
2023/06/03 06:16:02;;;;;;;4.63;2.22;;;;;;;23.29;52.22;99429.00;5107654;28;20027;-85
2023/06/03 06:18:29;;;;;;;2.05;1.38;;;;;;;23.48;53.62;99403.44;5100070;28;20036;-84
2023/06/03 06:20:55;;;;;;;4.30;3.03;;;;;;;23.56;52.29;99390.28;5100366;28;20035;-83
2023/06/03 06:23:20;;;;;;;1.83;1.23;;;;;;;23.89;51.79;99408.47;5092930;28;20039;-84
2023/06/03 06:25:50;;;;;;;7.82;2.15;;;;;;;24.10;50.22;99414.09;5099342;28;20024;-84
2023/06/03 06:28:18;;;;;;;6.45;2.33;;;;;;;23.69;53.49;99398.31;5097909;28;20157;-83
2023/06/03 06:30:45;;;;;;;4.75;2.53;;;;;;;23.78;53.75;99387.69;5096342;28;20062;-83
2023/06/03 06:33:17;;;;;;;5.15;2.22;;;;;;;23.99;50.97;99391.63;5096543;28;20028;-84
2023/06/03 06:35:44;;;;;;;3.90;2.60;;;;;;;23.80;50.56;99392.97;5101796;28;20031;-83
2023/06/03 06:38:15;;;;;;;3.50;2.28;;;;;;;24.26;49.17;99412.91;5101554;28;20048;-83
2023/06/03 06:40:45;;;;;;;4.68;2.63;;;;;;;24.33;49.12;99408.78;5089197;28;20040;-85
2023/06/03 06:43:15;;;;;;;2.08;1.73;;;;;;;24.46;51.96;99396.06;5091763;28;20135;-84
2023/06/03 06:45:40;;;;;;;2.70;1.70;;;;;;;24.97;50.03;99377.78;5094296;28;20028;-85
2023/06/03 06:48:07;;;;;;;2.42;1.88;;;;;;;24.85;49.08;99347.25;5097048;28;20084;-84
2023/06/03 06:50:50;;;;;;;3.28;1.48;;;;;;;25.70;48.18;99387.16;5092801;28;20449;-84
2023/06/03 06:53:18;;;;;;;1.98;1.25;;;;;;;25.94;47.58;99371.72;5102900;28;20096;-84
2023/06/03 06:55:55;;;;;;;4.78;2.38;;;;;;;26.14;45.69;99416.03;5097140;28;20031;-86
2023/06/03 06:58:24;;;;;;;4.75;2.85;;;;;;;26.10;44.72;99388.38;5107918;28;20096;-83
2023/06/03 07:00:50;;;;;;;3.08;1.67;;;;;;;26.25;45.30;99416.81;5093206;28;20028;-84
2023/06/03 07:03:18;;;;;;;2.58;1.60;;;;;;;26.66;43.35;99405.31;5093385;28;20043;-83
2023/06/03 07:05:45;;;;;;;3.25;2.13;;;;;;;26.98;42.06;99411.44;5093162;28;20050;-84
2023/06/03 07:08:10;;;;;;;2.78;1.90;;;;;;;27.23;40.21;99394.88;5091887;28;20035;-85
2023/06/03 07:10:36;;;;;;;6.60;2.65;;;;;;;26.78;42.38;99434.84;5093899;28;20035;-85
2023/06/03 07:13:03;;;;;;;2.53;1.38;;;;;;;27.19;39.63;99388.03;5095144;28;20064;-84
2023/06/03 07:15:29;;;;;;;1.73;1.20;;;;;;;27.43;41.93;99425.63;5088019;28;20078;-86
2023/06/03 07:17:56;;;;;;;3.92;2.22;;;;;;;27.57;39.69;99408.13;5078564;28;20040;-85
2023/06/03 07:20:25;;;;;;;2.50;1.65;;;;;;;27.43;43.55;99393.13;5096023;28;20035;-86
2023/06/03 07:22:50;;;;;;;1.83;1.38;;;;;;;28.07;42.65;99399.97;5090230;28;20423;-85
2023/06/03 07:25:37;;;;;;;2.17;1.38;;;;;;;28.32;43.48;99412.06;5090983;28;20028;-87
2023/06/03 07:28:04;;;;;;;2.95;1.92;;;;;;;28.69;40.08;99394.22;5091008;28;20028;-86
2023/06/03 07:30:34;;;;;;;2.97;1.90;;;;;;;28.25;40.24;99397.38;5092404;28;20031;-87
2023/06/03 07:33:02;;;;;;;3.80;2.30;;;;;;;28.70;39.21;99409.47;5092018;28;20044;-87
2023/06/03 07:35:27;;;;;;;2.35;1.55;;;;;;;27.87;39.28;99380.09;5092417;28;20457;-86
2023/06/03 07:37:53;;;;;;;2.72;1.80;;;;;;;27.94;38.87;99419.16;5091523;28;20048;-86
2023/06/03 07:40:18;;;;;;;5.00;2.25;;;;;;;27.07;39.44;99420.63;5092246;28;20910;-86
2023/06/03 07:42:47;;;;;;;4.05;2.53;;;;;;;26.94;40.58;99380.25;5089559;28;20385;-86
2023/06/03 07:45:13;;;;;;;2.78;2.20;;;;;;;27.20;42.32;99424.94;5092185;28;20028;-86
2023/06/03 07:47:39;;;;;;;2.35;1.58;;;;;;;26.74;41.77;99383.84;5091729;28;20040;-87
2023/06/03 07:50:22;;;;;;;3.83;1.98;;;;;;;27.11;42.37;99426.59;5092326;28;20028;-86
2023/06/03 07:52:56;;;;;;;3.88;2.03;;;;;;;27.45;41.17;99400.13;5091475;28;20028;-86
2023/06/03 07:55:21;;;;;;;2.05;1.60;;;;;;;27.62;39.64;99387.78;5091757;28;20054;-86
2023/06/03 07:57:47;;;;;;;2.28;1.45;;;;;;;27.57;40.47;99381.03;5091063;28;20444;-87
2023/06/03 08:00:16;;;;;;;3.53;1.33;;;;;;;27.96;41.46;99410.91;5092064;28;20071;-87
2023/06/03 08:02:41;;;;;;;5.97;1.77;;;;;;;28.60;38.82;99423.06;5091956;28;20489;-86
2023/06/03 08:05:07;;;;;;;2.97;1.70;;;;;;;27.54;43.44;99411.13;5091486;28;20069;-87
2023/06/03 08:07:33;;;;;;;2.70;1.77;;;;;;;26.81;40.46;99395.84;5091638;28;20028;-87
2023/06/03 08:09:58;;;;;;;3.42;1.88;;;;;;;27.13;40.94;99394.88;5091905;28;20034;-86
2023/06/03 08:12:31;;;;;;;3.05;1.65;;;;;;;27.37;40.95;99424.31;5092074;28;20036;-85
2023/06/03 08:14:57;;;;;;;2.05;1.67;;;;;;;27.56;43.20;99382.03;5091728;28;20024;-86
2023/06/03 08:17:40;;;;;;;2.42;1.73;;;;;;;27.95;39.58;99411.91;5091763;28;20420;-86
2023/06/03 08:20:09;;;;;;;2.80;1.73;;;;;;;28.40;39.80;99393.22;5091282;28;20028;-87
2023/06/03 08:22:44;;;;;;;3.80;2.08;;;;;;;28.60;38.49;99409.50;5091982;28;20028;-86
2023/06/03 08:25:11;;;;;;;8.93;2.03;;;;;;;28.06;37.81;99398.25;5091734;28;20028;-86
2023/06/03 08:27:37;;;;;;;4.45;2.25;;;;;;;28.01;37.89;99378.84;5091247;28;20035;-86
2023/06/03 08:30:07;;;;;;;3.40;2.03;;;;;;;28.65;37.68;99420.75;5091184;28;20039;-87
2023/06/03 08:32:38;;;;;;;2.10;1.75;;;;;;;28.03;39.33;99388.53;5091075;28;20028;-90
2023/06/03 08:35:04;;;;;;;3.10;1.83;;;;;;;28.56;39.39;99402.59;5090926;28;20034;-86
2023/06/03 08:37:32;;;;;;;4.72;1.80;;;;;;;28.87;38.14;99406.00;5090851;28;20475;-87
2023/06/03 08:39:58;;;;;;;3.28;2.05;;;;;;;28.60;37.10;99401.34;5089464;28;20028;-87
2023/06/03 08:42:30;;;;;;;3.38;1.65;;;;;;;28.72;39.14;99412.91;5091015;28;20563;-87
2023/06/03 08:44:59;;;;;;;2.92;1.48;;;;;;;28.78;36.91;99417.75;5090495;28;20039;-87
2023/06/03 08:47:30;;;;;;;2.92;1.80;;;;;;;28.29;38.69;99419.66;5090818;28;20031;-87
2023/06/03 08:49:58;;;;;;;3.70;1.60;;;;;;;28.22;38.60;99414.81;5090552;28;20040;-86
2023/06/03 08:52:30;;;;;;;3.75;1.88;;;;;;;28.00;40.25;99396.94;5090904;28;20043;-87
2023/06/03 08:55:00;;;;;;;2.72;1.60;;;;;;;28.87;41.45;99416.00;5090054;28;20119;-85
2023/06/03 08:57:33;;;;;;;5.05;2.25;;;;;;;29.13;39.13;99407.19;5090476;28;20043;-86
2023/06/03 09:00:00;;;;;;;3.92;1.60;;;;;;;29.44;38.16;99381.50;5094037;28;20056;-86
2023/06/03 09:02:28;;;;;;;4.28;2.25;;;;;;;28.81;36.56;99417.47;5096975;28;20116;-85
2023/06/03 09:04:55;;;;;;;2.25;1.23;;;;;;;28.80;39.17;99391.31;5104838;28;20047;-85
2023/06/03 09:07:23;;;;;;;4.28;2.40;;;;;;;28.53;41.17;99414.63;5107367;28;20030;-86
2023/06/03 09:09:51;;;;;;;3.70;2.17;;;;;;;29.05;38.21;99387.06;5090737;28;20043;-85
2023/06/03 09:12:16;;;;;;;4.18;2.08;;;;;;;29.31;38.09;99394.56;5103351;28;20036;-85
2023/06/03 09:14:43;;;;;;;3.50;2.17;;;;;;;30.03;37.53;99389.25;5094981;28;20573;-85
2023/06/03 09:17:09;;;;;;;3.85;1.90;;;;;;;29.89;36.78;99365.31;5090341;28;20147;-85
2023/06/03 09:19:35;;;;;;;10.40;4.32;;;;;;;30.42;35.47;99407.97;5089927;28;20157;-85
2023/06/03 09:22:02;;;;;;;3.63;2.78;;;;;;;30.02;35.86;99389.41;5090164;28;20032;-85
2023/06/03 09:24:27;;;;;;;7.00;4.50;;;;;;;30.00;35.20;99397.72;5090031;28;20459;-86
2023/06/03 09:26:53;;;;;;;14.35;3.35;;;;;;;30.25;35.24;99392.50;5100486;28;20097;-85
2023/06/03 09:29:20;;;;;;;3.20;1.70;;;;;;;30.20;34.48;99379.38;5102552;28;20036;-85
2023/06/03 09:31:47;;;;;;;4.55;2.63;;;;;;;30.15;35.95;99390.75;5089942;28;20443;-85
2023/06/03 09:34:14;;;;;;;2.78;2.15;;;;;;;30.76;37.83;99395.47;5095964;28;20038;-85
2023/06/03 09:36:48;;;;;;;8.18;2.83;;;;;;;29.85;35.35;99411.00;5108599;28;20037;-86
2023/06/03 09:39:17;;;;;;;5.27;3.27;;;;;;;29.67;35.61;99393.78;5108715;28;20034;-91
2023/06/03 09:41:44;;;;;;;27.02;21.73;;;;;;;30.08;36.20;99381.47;5109085;28;20350;-90
2023/06/03 09:53:50;;;;;;;3.78;2.13;;;;;;;29.20;36.04;99387.47;5127577;27;20173;-88
2023/06/03 09:56:26;;;;;;;4.40;3.22;;;;;;;30.26;36.17;99408.69;5127420;28;20031;-88
2023/06/03 09:59:30;;;;;;;43.85;30.92;;;;;;;30.60;34.69;99394.34;5109301;28;20030;-89
2023/06/03 10:01:55;;;;;;;379.40;241.50;;;;;;;30.74;33.91;99411.97;5109344;28;20404;-90
2023/06/03 10:04:38;;;;;;;615.05;458.58;;;;;;;31.15;32.94;99381.41;5127017;28;20045;-89
2023/06/03 10:07:14;;;;;;;387.25;229.23;;;;;;;31.12;33.59;99389.91;5127835;28;20027;-90
2023/06/03 10:09:45;;;;;;;15.65;11.43;;;;;;;30.61;32.52;99373.41;5127907;28;20159;-91
2023/06/03 10:12:12;;;;;;;334.77;258.15;;;;;;;30.53;35.82;99385.09;5109297;28;20039;-89
2023/06/03 10:14:49;;;;;;;633.28;413.38;;;;;;;31.35;32.99;99420.16;5128095;28;20549;-93
2023/06/03 10:17:18;;;;;;;473.00;421.17;;;;;;;30.92;32.66;99372.91;5109399;28;20032;-87
2023/06/03 10:19:45;;;;;;;227.52;123.70;;;;;;;31.19;32.87;99388.25;5128183;28;20027;-89
2023/06/03 10:22:15;;;;;;;20.05;15.68;;;;;;;30.74;32.10;99352.06;5127698;28;20038;-90
2023/06/03 10:24:45;;;;;;;25.48;15.90;;;;;;;31.14;32.83;99368.78;5126780;28;20028;-88
2023/06/03 10:27:11;;;;;;;183.40;118.32;;;;;;;30.99;34.87;99385.75;5108392;28;20035;-90
2023/06/03 10:29:37;;;;;;;494.95;395.63;;;;;;;31.20;35.22;99409.00;5107945;28;20062;-88
2023/06/03 10:32:05;;;;;;;202.00;147.40;;;;;;;31.04;33.11;99391.56;5126083;28;20028;-87
2023/06/03 10:34:37;;;;;;;87.25;63.90;;;;;;;30.33;35.13;99403.44;5108373;28;20092;-88
2023/06/03 10:37:05;;;;;;;66.28;41.38;;;;;;;30.43;33.12;99379.78;5126758;28;20488;-89
2023/06/03 10:39:31;;;;;;;230.30;141.60;;;;;;;30.60;35.58;99428.84;5108439;28;20030;-89
2023/06/03 10:42:05;;;;;;;94.53;60.38;;;;;;;30.60;33.67;99409.81;5126096;28;20378;-89
2023/06/03 10:44:34;;;;;;;9.27;6.10;;;;;;;30.66;34.05;99411.88;5103115;28;20482;-91
2023/06/03 10:47:05;;;;;;;39.90;27.75;;;;;;;30.17;33.87;99406.91;5087630;28;20126;-89
2023/06/03 10:49:40;;;;;;;53.47;32.10;;;;;;;30.25;33.64;99404.25;5105715;28;20039;-88
2023/06/03 10:52:24;;;;;;;129.82;86.90;;;;;;;30.28;35.06;99412.09;5105984;28;20048;-89
2023/06/03 10:55:27;;;;;;;15.07;9.35;;;;;;;30.36;34.46;99412.13;5106082;28;20107;-94
2023/06/03 10:58:00;;;;;;;3.92;2.22;;;;;;;30.48;33.48;99390.19;5088337;28;20455;-88
2023/06/03 11:01:03;;;;;;;3.17;1.88;;;;;;;30.45;34.48;99406.81;5086826;28;20036;-91
2023/06/03 11:04:02;;;;;;;4.32;2.30;;;;;;;29.80;35.48;99380.72;5110166;27;20043;-88
2023/06/03 11:06:28;;;;;;;3.78;2.17;;;;;;;30.04;36.11;99396.38;5084177;27;20065;-90
2023/06/03 11:09:08;;;;;;;4.07;2.35;;;;;;;29.39;36.81;99412.81;5083786;28;20054;-92
2023/06/03 11:11:52;;;;;;;3.00;1.67;;;;;;;29.46;37.59;99384.91;5101787;27;20031;-88
2023/06/03 11:14:29;;;;;;;2.20;1.43;;;;;;;29.53;37.65;99412.31;5102249;28;20561;-86
2023/06/03 11:16:58;;;;;;;3.75;1.85;;;;;;;29.54;36.74;99405.03;5111386;28;20265;-85
2023/06/03 11:19:27;;;;;;;3.92;2.03;;;;;;;29.86;36.38;99398.25;5093513;28;20404;-84
2023/06/03 11:21:53;;;;;;;3.75;1.95;;;;;;;29.60;36.99;99402.56;5111862;28;20035;-83
2023/06/03 11:24:37;;;;;;;2.58;1.50;;;;;;;29.75;39.06;99400.19;5111913;28;20031;-85
2023/06/03 11:27:21;;;;;;;2.38;1.23;;;;;;;29.81;37.33;99388.72;5093253;28;20496;-85
2023/06/03 11:29:51;;;;;;;2.65;1.45;;;;;;;29.77;37.58;99395.44;5090362;28;20031;-89
2023/06/03 11:32:21;;;;;;;2.83;1.45;;;;;;;29.95;36.74;99334.78;5101330;28;20062;-90
2023/06/03 11:34:48;;;;;;;4.05;1.40;;;;;;;29.58;36.83;99354.78;5081162;28;20041;-90
2023/06/03 11:37:17;;;;;;;2.88;1.45;;;;;;;29.52;36.47;99355.41;5082453;28;20028;-90
2023/06/03 11:40:06;;;;;;;4.32;2.33;;;;;;;29.32;37.78;99398.13;5093345;28;20180;-90
2023/06/03 11:42:51;;;;;;;3.58;1.27;;;;;;;29.51;37.54;99406.19;5109921;28;20042;-90
2023/06/03 11:45:17;;;;;;;1.02;0.82;;;;;;;29.54;38.58;99424.06;5072223;28;20569;-90
2023/06/03 11:47:50;;;;;;;2.40;1.48;;;;;;;29.35;38.77;99397.81;5073147;28;20040;-91